Time;durP1;ratioP1;P1;durP2;ratioP2;P2;SDS_P1;SDS_P2;PMS_P1;PMS_P2;Temp;Humidity;BMP_temperature;BMP_pressure;BME280_temperature;BME280_humidity;BME280_pressure;Samples;Min_cycle;Max_cycle;Signal;HPM_P1;HPM_P2
2023/09/15 00:01:49;;;;;;;11.95;4.05;;;;;;;12.66;92.82;101517.78;4964839;28;20134;-81
2023/09/15 00:04:16;;;;;;;5.47;3.15;;;;;;;12.67;92.83;101507.31;4960831;28;20050;-81
2023/09/15 00:06:46;;;;;;;7.60;3.75;;;;;;;12.66;92.82;101508.19;4960916;28;20058;-84
2023/09/15 00:09:14;;;;;;;5.13;2.95;;;;;;;12.63;92.84;101515.19;4978320;28;20054;-77
2023/09/15 00:11:42;;;;;;;6.50;2.80;;;;;;;12.57;93.43;101510.84;4958132;28;20134;-84
2023/09/15 00:14:14;;;;;;;4.38;2.45;;;;;;;12.57;93.70;101510.84;4945532;28;20063;-84
2023/09/15 00:16:46;;;;;;;10.00;3.33;;;;;;;12.57;93.54;101511.72;4960474;28;20054;-77
2023/09/15 00:19:16;;;;;;;4.72;2.70;;;;;;;12.56;93.11;101504.69;4959124;28;20047;-78
2023/09/15 00:21:48;;;;;;;8.63;3.28;;;;;;;12.55;93.56;101508.22;4959479;28;20043;-81
2023/09/15 00:24:14;;;;;;;4.57;2.88;;;;;;;12.48;93.84;101508.25;4961766;28;20061;-84
2023/09/15 00:26:41;;;;;;;8.40;2.50;;;;;;;12.47;92.91;101506.50;4959890;28;20043;-81
2023/09/15 00:29:08;;;;;;;3.10;2.17;;;;;;;12.43;93.17;101510.88;4947856;28;20548;-80
2023/09/15 00:31:34;;;;;;;5.13;2.38;;;;;;;12.40;93.27;101508.28;4945657;28;20066;-81
2023/09/15 00:34:01;;;;;;;2.83;2.50;;;;;;;12.39;93.07;101504.75;4948172;28;20137;-79
2023/09/15 00:36:28;;;;;;;6.88;2.50;;;;;;;12.40;92.41;101505.66;4949686;28;20171;-76
2023/09/15 00:38:55;;;;;;;4.53;2.78;;;;;;;12.40;92.96;101506.50;4962965;28;20133;-79
2023/09/15 00:41:21;;;;;;;3.42;2.00;;;;;;;12.39;92.21;101499.50;4959325;28;20709;-77
2023/09/15 00:43:52;;;;;;;9.60;2.20;;;;;;;12.34;92.98;101496.03;4960073;28;20652;-81
2023/09/15 00:46:19;;;;;;;3.53;1.88;;;;;;;12.34;93.03;101497.78;4961276;28;20468;-84
2023/09/15 00:48:46;;;;;;;4.70;2.45;;;;;;;12.30;92.82;101498.66;4969147;28;20035;-84
2023/09/15 00:51:14;;;;;;;5.00;2.75;;;;;;;12.28;93.15;101493.44;4966787;28;20099;-80
2023/09/15 00:53:41;;;;;;;3.58;2.17;;;;;;;12.27;93.34;101491.69;4951912;28;20093;-82
2023/09/15 00:56:09;;;;;;;2.35;2.03;;;;;;;12.23;93.60;101497.81;4970430;28;20077;-77
2023/09/15 00:58:40;;;;;;;6.90;2.53;;;;;;;12.21;93.67;101499.56;4945994;28;20089;-79
2023/09/15 01:01:08;;;;;;;5.93;2.47;;;;;;;12.16;94.04;101499.59;4967091;28;20121;-79
2023/09/15 01:03:41;;;;;;;3.72;2.00;;;;;;;12.16;94.43;101498.69;4962619;28;20046;-79
2023/09/15 01:06:09;;;;;;;;;;;;;;;12.14;96.90;101503.94;4961271;28;20061;-78
2023/09/15 01:08:36;;;;;;;2.10;1.90;;;;;;;12.12;97.64;101494.34;4967595;28;19972;-77
2023/09/15 01:11:04;;;;;;;2.90;2.53;;;;;;;12.11;98.36;101492.56;4962202;28;20860;-77
2023/09/15 01:13:35;;;;;;;3.85;2.90;;;;;;;12.07;97.91;101494.31;4960663;28;20050;-79
2023/09/15 01:16:35;;;;;;;4.45;2.53;;;;;;;12.01;100.00;101494.34;4963824;28;20047;-80
2023/09/15 01:19:25;;;;;;;4.38;2.60;;;;;;;12.00;100.00;101489.97;4966668;28;20062;-81
2023/09/15 01:22:25;;;;;;;4.97;2.72;;;;;;;11.96;100.00;101489.09;4956238;28;20054;-83
2023/09/15 01:25:27;;;;;;;2.97;2.55;;;;;;;11.96;100.00;101488.25;4967390;28;20066;-85
2023/09/15 01:28:38;;;;;;;9.73;2.75;;;;;;;11.93;100.00;101486.47;4970611;28;20050;-81
2023/09/15 01:31:07;;;;;;;4.07;2.33;;;;;;;11.91;100.00;101485.56;4961677;28;20521;-78
2023/09/15 01:33:33;;;;;;;5.10;3.10;;;;;;;11.90;100.00;101489.97;4967715;28;20039;-80
2023/09/15 01:36:00;;;;;;;3.42;2.50;;;;;;;11.88;100.00;101478.59;4987806;28;20039;-77
2023/09/15 01:38:27;;;;;;;2.88;2.58;;;;;;;11.84;100.00;101481.22;4970874;28;20047;-79
2023/09/15 01:40:56;;;;;;;3.25;2.72;;;;;;;11.83;100.00;101482.09;4970143;28;20042;-85
2023/09/15 01:43:23;;;;;;;5.93;3.15;;;;;;;11.81;100.00;101481.22;4969029;28;20126;-78
2023/09/15 01:45:49;;;;;;;5.43;3.03;;;;;;;11.77;100.00;101477.72;4967598;28;20126;-80
2023/09/15 01:48:17;;;;;;;3.25;2.67;;;;;;;11.76;100.00;101481.22;4970173;28;20051;-84
2023/09/15 01:50:43;;;;;;;4.68;3.75;;;;;;;11.71;100.00;101486.47;4947041;28;20039;-76
2023/09/15 01:53:10;;;;;;;7.97;3.17;;;;;;;11.68;100.00;101483.84;4962939;28;20442;-80
2023/09/15 01:55:37;;;;;;;10.00;3.58;;;;;;;11.67;100.00;101483.88;4971206;28;20127;-78
2023/09/15 01:58:04;;;;;;;4.78;3.22;;;;;;;11.66;100.00;101482.09;4968525;28;20050;-81
2023/09/15 02:00:38;;;;;;;5.82;3.10;;;;;;;11.65;100.00;101485.59;4949648;28;20039;-82
2023/09/15 02:03:06;;;;;;;3.50;2.83;;;;;;;11.63;100.00;101479.47;4963186;28;20051;-80
2023/09/15 02:05:35;;;;;;;4.05;2.72;;;;;;;11.60;100.00;101477.72;4962976;28;20061;-80
2023/09/15 02:08:01;;;;;;;17.55;7.60;;;;;;;11.62;100.00;101475.13;4967017;28;20549;-82
2023/09/15 02:10:28;;;;;;;4.65;3.03;;;;;;;11.58;100.00;101476.84;4967191;28;20078;-77
2023/09/15 02:12:55;;;;;;;4.68;3.13;;;;;;;11.58;100.00;101475.09;4972335;28;20053;-81
2023/09/15 02:15:21;;;;;;;6.53;3.25;;;;;;;11.53;100.00;101470.75;4971178;28;20447;-84
2023/09/15 02:17:51;;;;;;;10.32;4.05;;;;;;;11.52;100.00;101466.38;4967851;28;20077;-78
2023/09/15 02:20:18;;;;;;;6.18;4.03;;;;;;;11.55;100.00;101474.22;4966575;28;20041;-77
2023/09/15 02:22:47;;;;;;;8.57;4.05;;;;;;;11.53;100.00;101468.13;4966506;28;20047;-79
2023/09/15 02:25:13;;;;;;;9.65;3.42;;;;;;;11.53;100.00;101474.22;4967159;28;20241;-79
2023/09/15 02:27:40;;;;;;;5.88;3.97;;;;;;;11.52;100.00;101467.22;4979099;28;20061;-79
2023/09/15 02:30:08;;;;;;;5.28;3.20;;;;;;;11.52;100.00;101466.38;4968837;28;20043;-78
2023/09/15 02:32:35;;;;;;;4.75;3.20;;;;;;;11.55;100.00;101466.34;4960536;28;20039;-81
2023/09/15 02:35:01;;;;;;;5.88;4.28;;;;;;;11.54;100.00;101468.09;4984316;28;20053;-79
2023/09/15 02:37:28;;;;;;;7.15;3.88;;;;;;;11.51;100.00;101467.22;4967983;28;20114;-79
2023/09/15 02:39:54;;;;;;;7.05;4.32;;;;;;;11.50;100.00;101466.38;4947726;28;20047;-77
2023/09/15 02:42:21;;;;;;;5.63;3.90;;;;;;;11.47;100.00;101465.47;4960936;28;20067;-78
2023/09/15 02:44:47;;;;;;;4.78;3.92;;;;;;;11.44;100.00;101468.97;4969355;28;20055;-78
2023/09/15 02:47:17;;;;;;;5.15;3.65;;;;;;;11.44;100.00;101463.72;4951001;28;20138;-77
2023/09/15 02:49:47;;;;;;;6.07;3.38;;;;;;;11.44;100.00;101471.59;4958561;28;20514;-78
2023/09/15 02:52:16;;;;;;;6.28;3.53;;;;;;;11.42;100.00;101461.13;4966490;28;20057;-78
2023/09/15 02:54:44;;;;;;;3.38;3.05;;;;;;;11.42;100.00;101462.88;4963247;28;20677;-79
2023/09/15 02:57:11;;;;;;;3.63;3.10;;;;;;;11.39;100.00;101461.13;4970364;28;20124;-77
2023/09/15 02:59:37;;;;;;;3.92;2.80;;;;;;;11.38;100.00;101467.25;4963670;28;20122;-77
2023/09/15 03:02:04;;;;;;;8.52;3.13;;;;;;;11.36;100.00;101461.09;4966295;28;20126;-79
2023/09/15 03:04:31;;;;;;;2.95;2.75;;;;;;;11.36;100.00;101457.63;4965902;28;20078;-78
2023/09/15 03:06:57;;;;;;;4.03;3.00;;;;;;;11.31;100.00;101461.97;4945028;28;20390;-80
2023/09/15 03:09:24;;;;;;;6.60;4.57;;;;;;;11.29;100.00;101459.38;4966051;28;20486;-78
2023/09/15 03:11:51;;;;;;;4.72;2.72;;;;;;;11.24;100.00;101463.72;4965871;28;20053;-80
2023/09/15 03:14:19;;;;;;;3.85;2.65;;;;;;;11.19;100.00;101461.09;4965175;28;20519;-79
2023/09/15 03:16:46;;;;;;;2.47;2.28;;;;;;;11.17;100.00;101452.38;4965617;28;20039;-78
2023/09/15 03:19:12;;;;;;;4.80;3.08;;;;;;;11.15;100.00;101448.00;4952445;28;20046;-77
2023/09/15 03:21:39;;;;;;;9.68;3.92;;;;;;;11.14;100.00;101449.72;4967086;28;20053;-78
2023/09/15 03:24:06;;;;;;;7.13;3.03;;;;;;;11.13;100.00;101450.59;4964490;28;20061;-78
2023/09/15 03:26:33;;;;;;;3.33;2.90;;;;;;;11.11;100.00;101448.84;4962948;28;20047;-76
2023/09/15 03:29:00;;;;;;;3.33;2.90;;;;;;;11.08;100.00;101440.13;4967690;28;20887;-82
2023/09/15 03:31:26;;;;;;;6.03;3.67;;;;;;;11.06;100.00;101446.22;4962429;28;20126;-82
2023/09/15 03:33:53;;;;;;;5.32;3.08;;;;;;;11.04;100.00;101442.72;4966796;28;20186;-77
2023/09/15 03:36:21;;;;;;;3.97;2.97;;;;;;;11.02;100.00;101447.97;4977371;28;20418;-77
2023/09/15 03:38:48;;;;;;;4.88;2.90;;;;;;;11.01;100.00;101443.59;4964267;28;20035;-80
2023/09/15 03:41:15;;;;;;;3.40;2.33;;;;;;;10.99;100.00;101437.47;4947547;28;20491;-81
2023/09/15 03:43:42;;;;;;;4.32;2.65;;;;;;;10.95;100.00;101443.59;4943897;28;20059;-82
2023/09/15 03:46:08;;;;;;;5.97;2.90;;;;;;;10.94;100.00;101439.22;4953142;28;20089;-80
2023/09/15 03:48:35;;;;;;;4.50;3.28;;;;;;;10.92;100.00;101440.94;4964523;28;20818;-82
2023/09/15 03:51:01;;;;;;;3.63;2.97;;;;;;;10.91;100.00;101431.34;4962798;28;20039;-78
2023/09/15 03:53:28;;;;;;;3.17;2.78;;;;;;;10.90;100.00;101435.72;4961021;28;20050;-78
2023/09/15 03:55:55;;;;;;;8.13;3.65;;;;;;;10.89;100.00;101430.47;4962866;28;20050;-82
2023/09/15 03:58:21;;;;;;;5.90;2.92;;;;;;;10.87;100.00;101427.84;4948824;28;20054;-85
2023/09/15 04:00:48;;;;;;;7.13;2.95;;;;;;;10.86;100.00;101435.69;4950973;28;20074;-80
2023/09/15 04:03:14;;;;;;;3.42;2.70;;;;;;;10.83;100.00;101431.31;4979371;28;20058;-79
2023/09/15 04:05:41;;;;;;;9.02;3.85;;;;;;;10.83;100.00;101436.56;4947165;28;20047;-78
2023/09/15 04:08:08;;;;;;;3.83;3.50;;;;;;;10.79;100.00;101440.03;4966071;28;20069;-79
2023/09/15 04:10:34;;;;;;;4.68;3.38;;;;;;;10.79;100.00;101434.81;4962655;28;20055;-78
2023/09/15 04:13:01;;;;;;;5.47;3.10;;;;;;;10.74;100.00;101431.28;4960952;28;20051;-83
2023/09/15 04:15:29;;;;;;;4.05;3.40;;;;;;;10.69;100.00;101433.91;4978857;28;20054;-78
2023/09/15 04:17:55;;;;;;;6.53;3.90;;;;;;;10.65;100.00;101426.94;4962130;28;20138;-78
2023/09/15 04:20:22;;;;;;;9.07;3.83;;;;;;;10.64;100.00;101433.03;4958966;28;20129;-79
2023/09/15 04:22:49;;;;;;;5.53;3.00;;;;;;;10.66;100.00;101427.78;4966758;28;20039;-79
2023/09/15 04:25:16;;;;;;;4.20;2.95;;;;;;;10.64;100.00;101433.03;4961124;28;20072;-82
2023/09/15 04:27:43;;;;;;;5.63;3.35;;;;;;;10.65;100.00;101426.03;4955645;28;20125;-81
2023/09/15 04:30:10;;;;;;;4.55;3.10;;;;;;;10.64;100.00;101424.28;4964983;28;20499;-80
2023/09/15 04:32:37;;;;;;;3.58;3.25;;;;;;;10.63;100.00;101433.88;4960152;28;20069;-80
2023/09/15 04:35:05;;;;;;;3.72;3.38;;;;;;;10.64;100.00;101430.41;4969390;28;20129;-82
2023/09/15 04:37:32;;;;;;;5.85;3.83;;;;;;;10.60;100.00;101433.91;4964907;28;20047;-77
2023/09/15 04:39:59;;;;;;;5.57;3.38;;;;;;;10.60;100.00;101431.28;4948734;28;20388;-79
2023/09/15 04:42:25;;;;;;;3.40;3.20;;;;;;;10.54;100.00;101426.88;4959186;28;20082;-80
2023/09/15 04:44:53;;;;;;;6.00;3.83;;;;;;;10.55;100.00;101427.75;4967169;28;20517;-80
2023/09/15 04:47:37;;;;;;;9.18;4.53;;;;;;;10.56;100.00;101430.38;4979490;28;20043;-80
2023/09/15 04:50:06;;;;;;;5.85;3.30;;;;;;;10.54;100.00;101432.09;4964207;28;20557;-78
2023/09/15 04:52:32;;;;;;;6.00;3.83;;;;;;;10.51;100.00;101428.63;4952686;28;20077;-83
2023/09/15 04:54:59;;;;;;;7.72;3.42;;;;;;;10.53;100.00;101430.38;4967443;28;20251;-82
2023/09/15 04:57:26;;;;;;;5.28;3.38;;;;;;;10.50;100.00;101429.50;4963468;28;20487;-76
2023/09/15 04:59:54;;;;;;;7.60;3.67;;;;;;;10.51;100.00;101431.25;4965298;28;20043;-76
2023/09/15 05:02:22;;;;;;;8.65;4.05;;;;;;;10.51;100.00;101437.34;4960710;28;20042;-76
2023/09/15 05:04:51;;;;;;;4.22;3.55;;;;;;;10.52;100.00;101427.72;4962538;28;20043;-77
2023/09/15 05:07:20;;;;;;;4.72;4.10;;;;;;;10.48;100.00;101424.25;4961081;28;20550;-77
2023/09/15 05:09:47;;;;;;;8.80;4.20;;;;;;;10.48;100.00;101431.22;4958657;28;20270;-77
2023/09/15 05:12:16;;;;;;;8.07;4.15;;;;;;;10.43;100.00;101429.47;4948479;28;20057;-76
2023/09/15 05:14:43;;;;;;;4.60;3.60;;;;;;;10.46;100.00;101430.34;4962949;28;20491;-77
2023/09/15 05:17:09;;;;;;;8.43;4.78;;;;;;;10.46;100.00;101431.22;4966798;28;20054;-80
2023/09/15 05:19:37;;;;;;;6.65;4.13;;;;;;;10.49;100.00;101427.72;4963944;28;20070;-80
2023/09/15 05:22:04;;;;;;;6.07;3.10;;;;;;;10.51;100.00;101426.00;4964316;28;20073;-79
2023/09/15 05:24:31;;;;;;;4.78;3.58;;;;;;;10.53;100.00;101425.16;4960605;28;20129;-79
2023/09/15 05:26:57;;;;;;;6.55;3.63;;;;;;;10.57;100.00;101428.63;4958777;28;20428;-79
2023/09/15 05:29:25;;;;;;;7.80;4.40;;;;;;;10.54;100.00;101428.63;4961443;28;20043;-80
2023/09/15 05:31:51;;;;;;;13.55;5.22;;;;;;;10.56;100.00;101430.38;4965258;28;20055;-80
2023/09/15 05:34:18;;;;;;;7.80;2.88;;;;;;;10.62;100.00;101431.28;4960597;28;20064;-78
2023/09/15 05:36:44;;;;;;;7.25;3.33;;;;;;;10.63;100.00;101431.28;4961374;28;20062;-80
2023/09/15 05:39:11;;;;;;;9.32;3.80;;;;;;;10.65;100.00;101431.28;4963076;28;20118;-81
2023/09/15 05:41:38;;;;;;;6.75;4.10;;;;;;;10.70;100.00;101433.06;4959733;28;20051;-79
2023/09/15 05:44:04;;;;;;;8.75;3.80;;;;;;;10.75;100.00;101431.31;4965207;28;20039;-80
2023/09/15 05:46:31;;;;;;;7.97;3.58;;;;;;;10.82;100.00;101442.69;4962118;28;20045;-78
2023/09/15 05:48:59;;;;;;;15.75;3.42;;;;;;;10.87;100.00;101443.56;4963075;28;20035;-79
2023/09/15 05:51:26;;;;;;;4.40;3.33;;;;;;;10.90;100.00;101446.19;4968980;28;20395;-76
2023/09/15 05:53:54;;;;;;;5.70;4.25;;;;;;;10.98;100.00;101440.09;4968600;28;20130;-77
2023/09/15 05:56:21;;;;;;;9.32;4.00;;;;;;;10.99;100.00;101444.44;4966024;28;20051;-78
2023/09/15 05:58:47;;;;;;;4.60;3.55;;;;;;;11.04;100.00;101441.00;4967942;28;20588;-78
2023/09/15 06:01:14;;;;;;;14.48;4.95;;;;;;;11.10;100.00;101440.13;4965786;28;20114;-80
2023/09/15 06:03:41;;;;;;;8.45;4.22;;;;;;;11.15;100.00;101438.38;4958953;28;20526;-80
2023/09/15 06:06:10;;;;;;;4.45;3.08;;;;;;;11.15;100.00;101443.63;4971749;28;20058;-79
2023/09/15 06:08:37;;;;;;;8.68;4.07;;;;;;;11.22;100.00;101445.38;4945826;28;20043;-80
2023/09/15 06:11:06;;;;;;;8.30;4.20;;;;;;;11.30;100.00;101436.63;4952449;28;20043;-79
2023/09/15 06:13:34;;;;;;;6.03;3.65;;;;;;;11.33;100.00;101440.16;4957143;28;20047;-79
2023/09/15 06:16:03;;;;;;;5.80;3.13;;;;;;;11.37;100.00;101441.03;4953942;28;20051;-77
2023/09/15 06:18:32;;;;;;;7.20;3.83;;;;;;;11.48;100.00;101435.78;4974577;28;20062;-85
2023/09/15 06:21:01;;;;;;;3.33;2.67;;;;;;;13.02;100.00;101437.94;4963330;28;20070;-78
2023/09/15 06:23:30;;;;;;;5.13;3.00;;;;;;;16.60;75.99;101438.34;4967450;28;20047;-77
2023/09/15 06:25:56;;;;;;;10.32;2.88;;;;;;;18.34;67.69;101435.78;4972817;28;20170;-77
2023/09/15 06:28:23;;;;;;;8.23;3.08;;;;;;;19.20;61.46;101440.28;4965792;28;20132;-77
2023/09/15 06:30:51;;;;;;;6.35;2.95;;;;;;;20.45;56.80;101435.06;4965943;28;20070;-78
2023/09/15 06:33:18;;;;;;;8.15;3.40;;;;;;;20.58;56.17;101435.47;4965251;28;20521;-78
2023/09/15 06:35:44;;;;;;;5.75;3.40;;;;;;;20.66;54.02;101436.94;4969136;28;20030;-77
2023/09/15 06:38:12;;;;;;;4.47;2.65;;;;;;;21.38;51.98;101439.41;4973003;28;20043;-78
2023/09/15 06:40:38;;;;;;;4.15;3.55;;;;;;;21.21;51.70;101435.69;4968154;28;20059;-78
2023/09/15 06:43:07;;;;;;;5.35;2.28;;;;;;;21.84;50.21;101437.50;4971351;28;20043;-84
2023/09/15 06:45:36;;;;;;;2.63;2.00;;;;;;;22.13;48.88;101443.31;4959583;28;20071;-79
2023/09/15 06:48:06;;;;;;;3.47;2.40;;;;;;;22.26;48.37;101435.63;4960695;28;20039;-78
2023/09/15 06:50:33;;;;;;;2.60;2.35;;;;;;;22.24;49.29;101434.81;4956775;28;20471;-79
2023/09/15 06:53:01;;;;;;;5.38;2.65;;;;;;;22.80;46.91;101433.13;4952852;28;20115;-79
2023/09/15 06:55:27;;;;;;;5.30;1.95;;;;;;;23.70;45.96;101424.28;4974117;28;20049;-81
2023/09/15 06:57:54;;;;;;;9.23;2.40;;;;;;;24.07;45.50;101421.50;4955337;28;20106;-83
2023/09/15 07:00:20;;;;;;;3.15;2.35;;;;;;;24.09;44.74;101425.81;4954123;28;20074;-81
2023/09/15 07:02:47;;;;;;;5.45;2.55;;;;;;;24.16;44.17;101417.44;4966046;28;20058;-79
2023/09/15 07:05:14;;;;;;;3.42;2.40;;;;;;;24.78;43.01;101420.28;4964028;28;20138;-81
2023/09/15 07:07:41;;;;;;;4.63;2.63;;;;;;;24.59;42.91;101420.44;4967304;28;20356;-81
2023/09/15 07:10:11;;;;;;;3.63;2.70;;;;;;;24.46;42.30;101420.25;4967018;28;20043;-82
2023/09/15 07:12:43;;;;;;;4.53;2.80;;;;;;;25.38;42.11;101432.94;4986470;28;20051;-79
2023/09/15 07:15:13;;;;;;;3.60;2.38;;;;;;;25.36;41.10;101429.47;4967862;28;20487;-80
2023/09/15 07:17:40;;;;;;;9.30;2.63;;;;;;;25.19;41.22;101419.72;4965633;28;20474;-77
2023/09/15 07:20:07;;;;;;;3.80;2.17;;;;;;;25.16;40.83;101419.91;4963148;28;20059;-78
2023/09/15 07:22:34;;;;;;;5.00;2.28;;;;;;;25.22;39.20;101424.88;4967025;28;20038;-78
2023/09/15 07:25:01;;;;;;;4.55;2.67;;;;;;;25.41;40.33;101422.03;4964884;28;20571;-79
2023/09/15 07:27:28;;;;;;;4.32;2.45;;;;;;;25.84;39.91;101423.06;4954614;28;20046;-79
2023/09/15 07:29:54;;;;;;;4.25;2.15;;;;;;;25.96;39.29;101430.38;4961551;28;20035;-79
2023/09/15 07:32:21;;;;;;;9.05;2.20;;;;;;;26.15;38.26;101426.56;4971274;28;20831;-80
2023/09/15 07:34:50;;;;;;;6.25;2.70;;;;;;;26.13;39.02;101423.13;4954845;28;20050;-78
2023/09/15 07:37:17;;;;;;;5.20;2.03;;;;;;;25.98;39.06;101423.06;4949501;28;20045;-78
2023/09/15 07:39:43;;;;;;;3.83;2.25;;;;;;;26.58;37.86;101419.34;4979499;28;20050;-78
2023/09/15 07:42:13;;;;;;;4.65;2.83;;;;;;;26.37;37.98;101431.44;4965650;28;20459;-78
2023/09/15 07:44:41;;;;;;;5.32;2.58;;;;;;;25.51;39.15;101427.69;4964971;28;20043;-79
2023/09/15 07:47:12;;;;;;;8.85;1.98;;;;;;;26.11;38.51;101425.03;4964240;28;20042;-78
2023/09/15 07:49:38;;;;;;;4.97;2.33;;;;;;;26.63;37.63;101424.38;4971895;28;20074;-85
2023/09/15 07:52:05;;;;;;;3.22;2.13;;;;;;;26.38;38.18;101422.44;4983997;28;20034;-84
2023/09/15 07:54:32;;;;;;;9.05;2.33;;;;;;;26.59;37.94;101425.56;4991563;28;20038;-86
2023/09/15 07:57:00;;;;;;;3.75;2.38;;;;;;;26.71;37.59;101419.41;4974077;28;20049;-81
2023/09/15 07:59:27;;;;;;;5.10;2.30;;;;;;;26.45;38.35;101412.16;4984054;28;20049;-86
2023/09/15 08:01:53;;;;;;;5.70;2.42;;;;;;;27.26;37.17;101414.03;4984750;28;20046;-82
2023/09/15 08:04:19;;;;;;;4.25;2.13;;;;;;;27.45;36.73;101408.28;4985387;28;20108;-85
2023/09/15 08:06:45;;;;;;;4.65;2.47;;;;;;;27.71;36.67;101411.00;4984544;28;20063;-79
2023/09/15 08:09:12;;;;;;;2.50;2.30;;;;;;;27.86;36.22;101407.25;4985571;28;20038;-82
2023/09/15 08:11:40;;;;;;;3.50;2.00;;;;;;;26.52;37.83;101405.44;4967151;28;20078;-85
2023/09/15 08:14:06;;;;;;;4.65;1.98;;;;;;;27.00;37.75;101410.41;4969388;28;20043;-80
2023/09/15 08:16:33;;;;;;;5.50;2.42;;;;;;;27.69;36.33;101418.31;4967937;28;20051;-84
2023/09/15 08:19:01;;;;;;;6.38;2.40;;;;;;;27.93;36.34;101412.22;4950290;28;20071;-81
2023/09/15 08:21:31;;;;;;;7.75;2.17;;;;;;;27.63;36.78;101403.47;4946476;28;20051;-83
2023/09/15 08:23:58;;;;;;;4.40;2.00;;;;;;;28.41;34.84;101416.88;4962718;28;20051;-86
2023/09/15 08:26:26;;;;;;;6.13;2.25;;;;;;;27.93;35.78;101412.22;4965362;28;20129;-84
2023/09/15 08:28:53;;;;;;;4.88;2.10;;;;;;;28.07;35.92;101404.03;4960162;28;20049;-80
2023/09/15 08:31:19;;;;;;;4.10;2.90;;;;;;;28.22;35.31;101407.47;4961689;28;20130;-81
2023/09/15 08:33:46;;;;;;;4.72;2.15;;;;;;;28.29;34.74;101403.38;4957013;28;20047;-80
2023/09/15 08:36:12;;;;;;;5.40;2.38;;;;;;;27.68;35.61;101408.53;4968405;28;20054;-80
2023/09/15 08:38:39;;;;;;;4.15;2.30;;;;;;;27.85;36.12;101407.38;4960712;28;20075;-79
2023/09/15 08:41:15;;;;;;;3.00;2.22;;;;;;;27.68;36.01;101405.84;4956634;28;20043;-80
2023/09/15 08:43:44;;;;;;;5.30;2.28;;;;;;;28.61;35.57;101396.59;4962008;28;20487;-79
2023/09/15 08:46:12;;;;;;;2.95;1.92;;;;;;;27.61;36.23;101410.78;4944967;28;20515;-85
2023/09/15 08:48:41;;;;;;;4.63;2.22;;;;;;;27.75;36.85;101406.28;4963710;28;20071;-79
2023/09/15 08:51:08;;;;;;;2.85;2.20;;;;;;;26.91;38.14;101411.91;4959763;28;20122;-80
2023/09/15 08:53:37;;;;;;;2.65;1.67;;;;;;;28.20;35.37;101412.09;4963068;28;20035;-79
2023/09/15 08:56:04;;;;;;;4.13;2.05;;;;;;;27.92;36.47;101405.09;4981198;28;20042;-86
2023/09/15 08:58:31;;;;;;;3.67;2.50;;;;;;;27.87;36.21;101402.72;4962069;28;20043;-82
2023/09/15 09:01:00;;;;;;;8.45;2.17;;;;;;;28.26;35.72;101394.66;4965056;28;20085;-83
2023/09/15 09:03:26;;;;;;;4.80;2.63;;;;;;;28.65;35.12;101393.56;4957651;28;20062;-83
2023/09/15 09:05:55;;;;;;;3.13;2.47;;;;;;;28.32;35.65;101391.50;4963521;28;20047;-81
2023/09/15 09:08:24;;;;;;;6.22;2.20;;;;;;;27.86;36.11;101384.84;4962456;28;20126;-78
2023/09/15 09:10:51;;;;;;;3.13;2.22;;;;;;;28.61;35.64;101389.38;4953916;28;20415;-81
2023/09/15 09:13:22;;;;;;;3.50;1.58;;;;;;;29.08;35.44;101385.97;4967578;28;20054;-80
2023/09/15 09:15:52;;;;;;;7.00;2.47;;;;;;;27.96;36.48;101380.53;4981869;28;20053;-82
2023/09/15 09:18:20;;;;;;;6.78;2.40;;;;;;;27.71;37.11;101384.97;4981187;28;20045;-80
2023/09/15 09:20:49;;;;;;;3.72;2.25;;;;;;;27.38;37.23;101380.97;4966227;28;20049;-81
2023/09/15 09:23:19;;;;;;;6.03;2.88;;;;;;;28.03;36.52;101381.88;4948390;28;20089;-79
2023/09/15 09:25:46;;;;;;;4.82;2.00;;;;;;;27.86;36.72;101374.09;4948243;28;20047;-79
2023/09/15 09:28:15;;;;;;;4.45;2.88;;;;;;;27.83;37.17;101368.94;4957740;28;20126;-79
2023/09/15 09:30:42;;;;;;;4.55;2.28;;;;;;;27.68;37.84;101370.91;4961704;28;20053;-79
2023/09/15 09:33:20;;;;;;;6.00;2.47;;;;;;;27.67;37.72;101370.00;4961182;28;20039;-83
2023/09/15 09:35:47;;;;;;;5.88;1.73;;;;;;;28.01;37.19;101361.38;4962239;28;20059;-80
2023/09/15 09:38:14;;;;;;;5.60;2.47;;;;;;;26.31;40.56;101362.03;4964971;28;20436;-80
2023/09/15 09:40:40;;;;;;;3.45;2.38;;;;;;;26.94;39.24;101365.16;4972488;28;20048;-80
2023/09/15 09:43:08;;;;;;;3.55;2.08;;;;;;;27.65;38.40;101357.63;4953120;28;20051;-82
2023/09/15 09:45:35;;;;;;;4.15;1.77;;;;;;;28.11;37.00;101364.28;4963806;28;20574;-81
2023/09/15 09:48:02;;;;;;;4.15;1.92;;;;;;;27.39;37.29;101365.69;4967819;28;20047;-80
2023/09/15 09:50:28;;;;;;;2.63;2.03;;;;;;;28.05;36.91;101357.53;4964412;28;20519;-82
2023/09/15 09:52:56;;;;;;;4.68;2.35;;;;;;;29.01;35.66;101350.53;4974293;28;20043;-81
2023/09/15 09:55:26;;;;;;;3.47;2.50;;;;;;;28.58;36.03;101353.69;4959944;28;20070;-79
2023/09/15 09:57:52;;;;;;;3.05;2.20;;;;;;;28.34;36.27;101352.72;4955787;28;20059;-80
2023/09/15 10:00:25;;;;;;;3.17;2.30;;;;;;;28.99;35.05;101345.22;4973973;28;20097;-79
2023/09/15 10:02:53;;;;;;;2.60;2.15;;;;;;;29.28;35.06;101350.28;4954513;28;20255;-79
2023/09/15 10:05:24;;;;;;;3.35;2.20;;;;;;;29.16;34.09;101338.53;4961261;28;20073;-78
2023/09/15 10:07:50;;;;;;;2.63;2.17;;;;;;;30.17;33.08;101338.81;4972265;28;20047;-81
2023/09/15 10:10:19;;;;;;;2.53;2.13;;;;;;;29.97;33.31;101337.72;4968295;28;20126;-82
2023/09/15 10:12:47;;;;;;;2.75;2.00;;;;;;;29.60;33.49;101337.94;4979235;28;20061;-85
2023/09/15 10:15:15;;;;;;;2.38;1.65;;;;;;;29.67;34.00;101342.72;4964129;28;20525;-81
2023/09/15 10:17:43;;;;;;;5.07;2.13;;;;;;;29.35;34.39;101335.31;4947628;28;20130;-81
2023/09/15 10:20:10;;;;;;;5.47;2.83;;;;;;;30.05;33.30;101334.41;4965953;28;20055;-82
2023/09/15 10:22:38;;;;;;;2.38;1.98;;;;;;;29.89;32.46;101330.22;4965918;28;20043;-87
2023/09/15 10:25:16;;;;;;;3.58;2.33;;;;;;;29.87;32.91;101332.22;4966904;28;20069;-77
2023/09/15 10:27:42;;;;;;;3.63;2.05;;;;;;;30.52;32.45;101325.13;4969677;28;20109;-82
2023/09/15 10:30:11;;;;;;;4.90;2.90;;;;;;;30.69;31.90;101323.72;4964481;28;20159;-82
2023/09/15 10:32:39;;;;;;;4.47;2.05;;;;;;;30.43;31.77;101333.09;4967700;28;20118;-80
2023/09/15 10:35:07;;;;;;;3.13;2.47;;;;;;;30.99;31.37;101326.66;4949454;28;20070;-80
2023/09/15 10:37:36;;;;;;;3.00;2.00;;;;;;;29.61;32.51;101327.03;4973689;28;20066;-82
2023/09/15 10:40:03;;;;;;;3.47;1.80;;;;;;;29.90;33.04;101323.00;4966805;28;20058;-80
2023/09/15 10:42:37;;;;;;;5.95;2.35;;;;;;;30.48;32.27;101318.25;4961112;28;20043;-82
2023/09/15 10:45:11;;;;;;;4.72;2.28;;;;;;;30.62;32.35;101314.38;4947222;28;20047;-85
2023/09/15 10:47:38;;;;;;;4.47;2.03;;;;;;;31.72;30.63;101306.91;4972793;28;20042;-82
2023/09/15 10:50:07;;;;;;;3.95;2.42;;;;;;;31.51;31.02;101299.66;4954591;28;20046;-82
2023/09/15 10:52:39;;;;;;;3.38;2.08;;;;;;;31.13;31.61;101303.84;4970488;28;20051;-86
2023/09/15 10:55:07;;;;;;;3.42;2.13;;;;;;;32.12;30.36;101298.78;4970573;28;20078;-79
2023/09/15 10:57:37;;;;;;;4.95;2.78;;;;;;;31.99;30.46;101293.59;4972572;28;20040;-83
2023/09/15 11:00:07;;;;;;;2.42;1.83;;;;;;;31.62;31.05;101298.75;4962679;28;20047;-80
2023/09/15 11:02:36;;;;;;;2.55;1.98;;;;;;;31.77;31.18;101294.69;4967216;28;20053;-83
2023/09/15 11:05:05;;;;;;;5.15;2.45;;;;;;;30.88;31.44;101300.53;4973318;28;20074;-80
2023/09/15 11:07:35;;;;;;;2.70;2.15;;;;;;;30.27;31.90;101306.50;4972474;28;20138;-81
2023/09/15 11:10:02;;;;;;;3.10;2.33;;;;;;;32.08;29.80;101291.91;4949140;28;20082;-80
2023/09/15 11:12:29;;;;;;;4.63;2.22;;;;;;;31.54;30.94;101299.41;4968661;28;20047;-82
2023/09/15 11:15:00;;;;;;;2.13;2.00;;;;;;;32.33;29.55;101282.44;4969263;28;20101;-82
2023/09/15 11:17:30;;;;;;;2.25;2.15;;;;;;;32.19;29.84;101287.38;4949882;29;20047;-81
2023/09/15 11:19:59;;;;;;;7.57;2.47;;;;;;;31.78;30.70;101276.59;4962927;28;20047;-81
2023/09/15 11:22:26;;;;;;;3.10;2.42;;;;;;;30.91;31.49;101280.47;4970679;28;20050;-83
2023/09/15 11:24:53;;;;;;;2.30;2.10;;;;;;;31.21;31.40;101273.44;4967807;28;20481;-81
2023/09/15 11:27:20;;;;;;;4.15;2.30;;;;;;;30.12;32.94;101271.69;4966027;28;20428;-78